createdAt,value
2023-05-16T00:35:33.288Z,4.43
2023-05-16T00:38:28.402Z,4.47
2023-05-16T00:40:56.418Z,4.15
2023-05-16T00:44:20.149Z,4.25
2023-05-16T00:46:50.390Z,3.97
2023-05-16T00:49:26.370Z,4.82
2023-05-16T00:51:55.551Z,4.75
2023-05-16T01:01:11.935Z,5.53
2023-05-16T01:04:20.271Z,4.95
2023-05-16T01:18:42.296Z,4.90
2023-05-16T01:21:16.303Z,5.00
2023-05-16T01:31:39.008Z,5.50
2023-05-16T01:34:08.999Z,5.28
2023-05-16T01:36:45.417Z,6.00
2023-05-16T01:39:21.670Z,5.80
2023-05-16T01:41:56.563Z,5.60
2023-05-16T01:44:30.818Z,5.68
2023-05-16T01:47:03.515Z,6.25
2023-05-16T01:53:09.094Z,6.75
2023-05-16T01:55:53.869Z,5.97
2023-05-16T01:58:26.136Z,6.32
2023-05-16T02:00:54.759Z,5.68
2023-05-16T02:03:33.395Z,6.47
2023-05-16T02:09:31.534Z,5.82
2023-05-16T02:12:02.461Z,6.95
2023-05-16T02:14:45.133Z,6.53
2023-05-16T02:17:35.229Z,7.20
2023-05-16T02:20:07.090Z,7.75
2023-05-16T02:22:36.148Z,10.00
2023-05-16T02:25:19.145Z,10.25
2023-05-16T02:28:06.820Z,11.48
2023-05-16T02:30:35.043Z,12.13
2023-05-16T02:33:20.215Z,12.90
2023-05-16T02:35:48.298Z,12.20
2023-05-16T02:38:36.034Z,12.48
2023-05-16T02:41:24.975Z,12.23
2023-05-16T02:48:04.939Z,12.20
2023-05-16T02:51:11.042Z,12.60
2023-05-16T02:54:01.473Z,12.50
2023-05-16T02:56:50.199Z,13.62
2023-05-16T02:59:36.263Z,12.30
2023-05-16T03:02:05.127Z,11.95
2023-05-16T03:04:35.860Z,11.77
2023-05-16T03:07:41.006Z,12.82
2023-05-16T03:10:32.912Z,11.23
2023-05-16T03:13:59.661Z,10.95
2023-05-16T03:16:29.309Z,10.48
2023-05-16T03:18:57.565Z,10.60
2023-05-16T03:21:27.362Z,10.98
2023-05-16T03:23:56.235Z,10.55
2023-05-16T03:26:24.578Z,11.48
2023-05-16T03:28:53.096Z,10.95
2023-05-16T03:31:30.543Z,9.70
2023-05-16T03:34:18.610Z,11.00
2023-05-16T03:36:51.056Z,12.55
2023-05-16T03:39:35.511Z,12.10
2023-05-16T03:42:43.324Z,10.13
2023-05-16T03:45:12.254Z,9.57
2023-05-16T03:47:41.114Z,10.30
2023-05-16T03:50:11.027Z,10.43
2023-05-16T03:52:40.985Z,10.50
2023-05-16T03:55:09.689Z,8.88
2023-05-16T03:58:10.304Z,9.48
2023-05-16T04:01:00.253Z,9.07
2023-05-16T04:03:44.699Z,8.88
2023-05-16T04:06:41.118Z,8.10
2023-05-16T04:09:22.165Z,8.73
2023-05-16T04:11:51.766Z,7.72
2023-05-16T04:14:20.004Z,8.30
2023-05-16T04:16:48.348Z,8.32
2023-05-16T04:23:04.454Z,7.10
2023-05-16T04:25:55.353Z,7.03
2023-05-16T04:28:25.200Z,6.25
2023-05-16T04:31:06.445Z,6.47
2023-05-16T04:33:50.520Z,6.22
2023-05-16T04:36:18.759Z,6.07
2023-05-16T04:38:47.651Z,5.57
2023-05-16T04:41:16.134Z,5.05
2023-05-16T04:43:45.751Z,5.45
2023-05-16T04:46:15.564Z,5.62
2023-05-16T04:48:43.585Z,4.85
2023-05-16T04:51:57.993Z,4.72
2023-05-16T04:54:33.729Z,4.85
2023-05-16T04:57:02.629Z,4.35
2023-05-16T04:59:32.551Z,5.45
2023-05-16T05:02:00.833Z,3.85
2023-05-16T05:04:29.293Z,5.35
2023-05-16T05:06:57.963Z,4.78
2023-05-16T05:09:26.111Z,4.50
2023-05-16T05:11:54.441Z,4.32
2023-05-16T05:14:22.439Z,3.85
2023-05-16T05:16:52.023Z,4.32
2023-05-16T05:19:20.450Z,3.20
2023-05-16T05:21:48.574Z,4.10
2023-05-16T05:24:16.553Z,3.62
2023-05-16T05:26:47.353Z,3.75
2023-05-16T05:29:16.133Z,3.10
2023-05-16T05:31:44.823Z,3.60
2023-05-16T05:34:14.325Z,2.90
2023-05-16T05:36:45.289Z,3.10
2023-05-16T05:39:32.711Z,2.62
2023-05-16T05:42:03.993Z,2.42
2023-05-16T05:44:32.221Z,2.45
2023-05-16T05:47:00.610Z,2.50
2023-05-16T05:49:30.416Z,2.42
2023-05-16T05:51:59.008Z,2.33
2023-05-16T05:54:27.305Z,2.00
2023-05-16T05:56:55.352Z,2.20
2023-05-16T05:59:23.330Z,2.00
2023-05-16T06:01:52.987Z,2.35
2023-05-16T06:04:21.638Z,2.87
2023-05-16T06:06:51.091Z,2.50
2023-05-16T06:09:19.349Z,2.25
2023-05-16T06:11:48.048Z,2.10
2023-05-16T06:14:16.532Z,2.28
2023-05-16T06:16:44.802Z,2.33
2023-05-16T06:19:16.093Z,2.62
2023-05-16T06:21:44.867Z,2.30
2023-05-16T06:24:14.188Z,1.95
2023-05-16T06:26:42.461Z,3.30
2023-05-16T06:29:10.484Z,2.55
2023-05-16T06:31:38.675Z,2.20
2023-05-16T06:34:07.010Z,2.15
2023-05-16T06:36:35.501Z,2.17
2023-05-16T06:39:04.910Z,2.35
2023-05-16T06:41:34.863Z,2.37
2023-05-16T06:44:05.033Z,2.50
2023-05-16T06:46:34.623Z,2.90
2023-05-16T06:49:03.637Z,2.22
2023-05-16T06:51:32.144Z,2.20
2023-05-16T06:54:02.784Z,2.35
2023-05-16T06:56:32.689Z,2.00
2023-05-16T06:59:02.560Z,1.62
2023-05-16T07:01:30.618Z,1.85
2023-05-16T07:04:01.384Z,1.87
2023-05-16T07:06:30.522Z,2.33
2023-05-16T07:08:58.855Z,2.03
2023-05-16T07:11:27.258Z,1.83
2023-05-16T07:13:55.649Z,1.80
2023-05-16T07:16:28.666Z,1.95
2023-05-16T07:18:57.380Z,1.45
2023-05-16T07:21:26.416Z,1.60
2023-05-16T07:23:55.933Z,1.70
2023-05-16T07:26:24.718Z,1.35
2023-05-16T07:28:53.360Z,1.02
2023-05-16T07:31:21.875Z,1.17
2023-05-16T07:33:51.731Z,1.42
2023-05-16T07:36:19.753Z,1.65
2023-05-16T07:39:09.092Z,1.85
2023-05-16T07:41:37.441Z,1.35
2023-05-16T07:44:05.553Z,1.70
2023-05-16T07:46:33.815Z,1.45
2023-05-16T07:49:03.563Z,0.85
2023-05-16T07:51:43.954Z,1.02
2023-05-16T07:54:12.768Z,0.98
2023-05-16T08:00:32.861Z,0.95
2023-05-16T08:03:02.338Z,0.90
2023-05-16T08:05:32.155Z,0.88
2023-05-16T08:08:00.644Z,1.08
2023-05-16T08:10:31.825Z,1.10
2023-05-16T08:13:09.824Z,0.90
2023-05-16T08:15:38.186Z,0.85
2023-05-16T08:18:14.310Z,0.93
2023-05-16T08:24:19.235Z,1.02
2023-05-16T08:26:47.813Z,0.93
2023-05-16T08:29:15.953Z,1.05
2023-05-16T08:31:44.182Z,0.90
2023-05-16T08:34:15.081Z,1.10
2023-05-16T08:36:44.875Z,0.80
2023-05-16T08:39:15.803Z,1.00
2023-05-16T08:41:44.213Z,1.10
2023-05-16T08:44:13.292Z,1.20
2023-05-16T08:46:42.443Z,1.42
2023-05-16T08:49:15.216Z,0.98
2023-05-16T08:51:47.571Z,0.85
2023-05-16T08:54:22.992Z,1.10
2023-05-16T08:56:51.988Z,0.70
2023-05-16T08:59:20.719Z,0.62
2023-05-16T09:02:05.945Z,1.17
2023-05-16T09:04:34.795Z,0.73
2023-05-16T09:07:04.889Z,0.75
2023-05-16T09:09:33.259Z,0.77
2023-05-16T09:12:01.940Z,0.60
2023-05-16T09:14:30.967Z,0.70
2023-05-16T09:17:06.583Z,0.50
2023-05-16T09:19:40.185Z,0.50
2023-05-16T09:22:10.613Z,0.70
2023-05-16T09:24:40.629Z,0.68
2023-05-16T09:27:10.518Z,0.70
2023-05-16T09:29:41.711Z,0.47
2023-05-16T09:32:18.587Z,0.98
2023-05-16T09:34:49.229Z,0.43
2023-05-16T09:37:20.816Z,0.40
2023-05-16T09:39:50.805Z,0.70
2023-05-16T09:42:20.336Z,0.65
2023-05-16T09:44:50.637Z,0.80
2023-05-16T09:47:20.473Z,0.77
2023-05-16T09:49:53.204Z,0.80
2023-05-16T09:52:22.703Z,0.70
2023-05-16T09:54:51.181Z,0.80
2023-05-16T09:57:20.438Z,0.82
2023-05-16T09:59:48.827Z,0.60
2023-05-16T10:02:17.469Z,0.70
2023-05-16T10:04:46.572Z,0.62
2023-05-16T10:07:15.232Z,0.88
2023-05-16T10:09:45.014Z,0.93
2023-05-16T10:12:38.268Z,0.80
2023-05-16T10:15:11.544Z,0.70
2023-05-16T10:17:45.466Z,0.62
2023-05-16T10:20:14.502Z,1.23
2023-05-16T10:22:45.938Z,1.40
2023-05-16T10:25:44.508Z,0.90
2023-05-16T10:28:14.318Z,0.75
2023-05-16T10:30:44.301Z,1.17
2023-05-16T10:33:14.056Z,0.95
2023-05-16T10:35:42.907Z,1.08
2023-05-16T10:38:13.529Z,1.23
2023-05-16T10:40:44.237Z,1.30
2023-05-16T10:43:12.389Z,0.73
2023-05-16T10:45:43.448Z,0.77
2023-05-16T10:48:15.455Z,0.90
2023-05-16T10:50:45.281Z,0.75
2023-05-16T10:53:19.649Z,0.80
2023-05-16T10:56:08.599Z,1.50
2023-05-16T10:58:48.847Z,1.33
2023-05-16T11:01:19.214Z,1.20
2023-05-16T11:04:11.222Z,0.60
2023-05-16T11:06:51.376Z,1.17
2023-05-16T11:09:28.206Z,0.95
2023-05-16T11:12:03.338Z,1.00
2023-05-16T11:14:38.392Z,0.62
2023-05-16T11:17:11.988Z,1.23
2023-05-16T11:19:43.816Z,0.82
2023-05-16T11:22:23.497Z,0.80
2023-05-16T11:24:54.189Z,0.75
2023-05-16T11:27:29.005Z,1.00
2023-05-16T11:30:03.668Z,1.08
2023-05-16T11:32:35.038Z,1.08
2023-05-16T11:35:04.690Z,0.60
2023-05-16T11:37:32.978Z,1.00
2023-05-16T11:40:02.306Z,1.08
2023-05-16T11:42:34.008Z,0.80
2023-05-16T11:45:07.509Z,0.68
2023-05-16T11:47:40.274Z,0.85
2023-05-16T11:50:12.429Z,0.82
2023-05-16T11:52:41.360Z,0.85
2023-05-16T11:55:12.616Z,1.12
2023-05-16T11:57:45.332Z,1.05
2023-05-16T12:00:23.632Z,0.80
2023-05-16T12:02:52.173Z,1.08
2023-05-16T12:05:25.480Z,1.00
2023-05-16T12:07:56.266Z,0.50
2023-05-16T12:10:25.605Z,0.80
2023-05-16T12:12:56.843Z,0.88
2023-05-16T12:15:24.971Z,1.05
2023-05-16T12:17:54.015Z,1.00
2023-05-16T12:20:22.146Z,1.08
2023-05-16T12:22:50.294Z,0.80
2023-05-16T12:25:29.395Z,0.65
2023-05-16T12:28:01.130Z,1.00
2023-05-16T12:30:31.622Z,0.70
2023-05-16T12:33:04.182Z,0.75
2023-05-16T12:35:35.827Z,1.08
2023-05-16T12:38:05.714Z,0.82
2023-05-16T12:40:34.304Z,0.80
2023-05-16T12:43:04.549Z,0.80
2023-05-16T12:45:35.464Z,1.23
2023-05-16T12:48:07.896Z,1.40
2023-05-16T12:50:36.816Z,0.30
2023-05-16T12:53:12.884Z,0.80
2023-05-16T12:55:41.335Z,0.70
2023-05-16T12:58:12.660Z,0.60
2023-05-16T13:00:41.121Z,0.85
2023-05-16T13:03:09.640Z,1.05
2023-05-16T13:05:37.849Z,0.68
2023-05-16T13:08:06.351Z,0.57
2023-05-16T13:10:40.739Z,1.12
2023-05-16T13:13:08.984Z,1.00
2023-05-16T13:15:38.957Z,0.70
2023-05-16T13:18:07.414Z,0.82
2023-05-16T13:20:35.571Z,0.95
2023-05-16T13:23:09.447Z,0.88
2023-05-16T13:25:37.499Z,0.73
2023-05-16T13:28:06.176Z,0.98
2023-05-16T13:30:35.504Z,0.70
2023-05-16T13:33:05.145Z,0.65
2023-05-16T13:35:33.682Z,0.70
2023-05-16T13:38:01.894Z,0.73
2023-05-16T13:40:30.130Z,0.80
2023-05-16T13:42:58.980Z,0.60
2023-05-16T13:45:27.695Z,0.62
2023-05-16T13:47:56.405Z,0.73
2023-05-16T13:50:33.276Z,0.62
2023-05-16T13:53:15.387Z,0.60
2023-05-16T13:55:44.059Z,0.52
2023-05-16T13:58:12.226Z,0.60
2023-05-16T14:00:45.284Z,1.05
2023-05-16T14:03:14.513Z,0.50
2023-05-16T14:05:44.024Z,0.80
2023-05-16T14:08:12.209Z,0.85
2023-05-16T14:10:40.666Z,0.85
2023-05-16T14:13:08.753Z,0.50
2023-05-16T14:15:36.992Z,0.60
2023-05-16T14:18:06.289Z,0.40
2023-05-16T14:20:41.390Z,0.70
2023-05-16T14:23:11.212Z,0.60
2023-05-16T14:25:39.475Z,0.82
2023-05-16T14:28:07.759Z,0.50
2023-05-16T14:30:37.393Z,0.77
2023-05-16T14:33:13.144Z,0.70
2023-05-16T14:35:41.653Z,0.57
2023-05-16T14:38:11.166Z,0.80
2023-05-16T14:40:42.207Z,0.55
2023-05-16T14:43:10.587Z,0.55
2023-05-16T14:45:42.529Z,0.55
2023-05-16T14:48:18.765Z,0.73
2023-05-16T14:50:47.586Z,0.60
2023-05-16T14:53:17.967Z,0.40
2023-05-16T14:55:46.345Z,0.65
2023-05-16T14:58:14.427Z,0.70
2023-05-16T15:00:42.533Z,0.47
2023-05-16T15:03:12.576Z,0.65
2023-05-16T15:05:42.528Z,0.30
2023-05-16T15:08:11.075Z,0.50
2023-05-16T15:10:41.002Z,0.55
2023-05-16T15:13:09.384Z,0.30
2023-05-16T15:15:39.680Z,0.47
2023-05-16T15:18:07.962Z,0.45
2023-05-16T15:20:40.454Z,0.52
2023-05-16T15:23:09.594Z,0.52
2023-05-16T15:25:38.056Z,0.45
2023-05-16T15:28:07.672Z,0.50
2023-05-16T15:30:36.123Z,0.70
2023-05-16T15:33:04.291Z,0.68
2023-05-16T15:35:32.546Z,0.40
2023-05-16T15:38:01.853Z,0.32
2023-05-16T15:40:29.980Z,0.60
2023-05-16T15:42:58.094Z,0.40
2023-05-16T15:45:28.223Z,0.90
2023-05-16T15:48:42.872Z,0.52
2023-05-16T15:51:22.590Z,0.30
2023-05-16T15:53:50.695Z,0.50
2023-05-16T15:56:19.487Z,0.47
2023-05-16T15:58:47.964Z,0.43
2023-05-16T16:01:17.733Z,0.50
2023-05-16T16:03:46.543Z,0.60
2023-05-16T16:06:14.995Z,0.40
2023-05-16T16:08:43.209Z,0.55
2023-05-16T16:11:11.583Z,0.60
2023-05-16T16:13:39.776Z,0.40
2023-05-16T16:16:08.424Z,0.30
2023-05-16T16:18:38.440Z,0.50
2023-05-16T16:21:24.480Z,0.50
2023-05-16T16:23:52.958Z,0.50
2023-05-16T16:26:21.350Z,0.62
2023-05-16T16:28:50.245Z,0.45
2023-05-16T16:31:18.593Z,0.57
2023-05-16T16:33:49.208Z,0.30
2023-05-16T16:36:22.684Z,0.35
2023-05-16T16:38:51.136Z,0.50
2023-05-16T16:41:19.223Z,0.75
2023-05-16T16:43:47.699Z,0.40
2023-05-16T16:46:16.510Z,0.52
2023-05-16T16:48:44.575Z,0.73
2023-05-16T16:51:13.878Z,0.17
2023-05-16T16:53:42.779Z,0.30
2023-05-16T16:56:10.975Z,0.32
2023-05-16T16:58:39.074Z,0.50
2023-05-16T17:01:07.867Z,0.50
2023-05-16T17:03:36.248Z,0.30
2023-05-16T17:06:05.203Z,0.40
2023-05-16T17:08:35.530Z,0.40
2023-05-16T17:11:05.225Z,0.60
2023-05-16T17:13:37.494Z,0.62
2023-05-16T17:16:06.396Z,0.77
2023-05-16T17:18:36.631Z,0.60
2023-05-16T17:21:04.831Z,0.98
2023-05-16T17:23:33.600Z,0.55
2023-05-16T17:26:03.445Z,0.73
2023-05-16T17:28:32.659Z,0.90
2023-05-16T17:31:04.069Z,0.40
2023-05-16T17:33:32.903Z,0.80
2023-05-16T17:36:01.041Z,0.60
2023-05-16T17:38:29.830Z,0.80
2023-05-16T17:40:58.069Z,0.80
2023-05-16T17:43:27.550Z,0.60
2023-05-16T17:45:55.961Z,0.50
2023-05-16T17:48:24.704Z,0.60
2023-05-16T17:50:52.994Z,0.40
2023-05-16T17:53:21.128Z,0.40
2023-05-16T17:55:49.670Z,0.40
2023-05-16T17:58:17.946Z,0.50
2023-05-16T18:00:48.554Z,0.57
2023-05-16T18:03:17.654Z,0.30
2023-05-16T18:05:46.456Z,1.02
2023-05-16T18:08:14.667Z,0.30
2023-05-16T18:10:51.675Z,0.32
2023-05-16T18:13:20.781Z,0.40
2023-05-16T18:15:50.760Z,0.20
2023-05-16T18:18:19.219Z,0.47
2023-05-16T18:20:47.633Z,0.30
2023-05-16T18:23:16.301Z,0.50
2023-05-16T18:25:44.402Z,0.30
2023-05-16T18:28:12.377Z,0.57
2023-05-16T18:30:41.066Z,0.50
2023-05-16T18:33:10.632Z,0.40
2023-05-16T18:35:38.865Z,0.35
2023-05-16T18:38:10.493Z,0.52
2023-05-16T18:40:47.721Z,0.40
2023-05-16T18:43:16.279Z,0.43
2023-05-16T18:45:44.475Z,0.57
2023-05-16T18:48:14.105Z,0.57
2023-05-16T18:50:42.618Z,0.37
2023-05-16T18:53:10.732Z,0.52
2023-05-16T18:55:38.845Z,0.50
2023-05-16T18:58:08.233Z,0.50
2023-05-16T19:00:36.713Z,0.40
2023-05-16T19:03:04.949Z,0.70
2023-05-16T19:05:35.330Z,0.50
2023-05-16T19:08:03.769Z,0.47
2023-05-16T19:10:32.433Z,0.50
2023-05-16T19:13:07.052Z,0.40
2023-05-16T19:15:36.036Z,0.37
2023-05-16T19:18:05.025Z,0.70
2023-05-16T19:20:36.107Z,0.40
2023-05-16T19:23:04.463Z,0.88
2023-05-16T19:25:32.644Z,0.62
2023-05-16T19:28:00.944Z,0.50
2023-05-16T19:30:29.670Z,0.20
2023-05-16T19:32:58.043Z,0.80
2023-05-16T19:35:26.876Z,0.28
2023-05-16T19:37:57.012Z,0.47
2023-05-16T19:40:25.073Z,0.50
2023-05-16T19:42:53.192Z,0.25
2023-05-16T19:45:21.855Z,0.47
2023-05-16T19:47:50.076Z,0.22
2023-05-16T19:50:19.331Z,0.77
2023-05-16T19:52:49.350Z,0.43
2023-05-16T19:55:19.167Z,0.30
2023-05-16T19:57:47.358Z,0.40
2023-05-16T20:00:16.681Z,0.40
2023-05-16T20:02:45.368Z,0.40
2023-05-16T20:05:14.666Z,0.30
2023-05-16T20:07:42.892Z,0.35
2023-05-16T20:10:11.460Z,0.35
2023-05-16T20:12:41.059Z,0.52
2023-05-16T20:15:11.078Z,0.32
2023-05-16T20:17:40.438Z,0.47
2023-05-16T20:20:10.102Z,0.35
2023-05-16T20:22:41.267Z,0.45
2023-05-16T20:25:11.787Z,0.75
2023-05-16T20:27:41.513Z,0.80
2023-05-16T20:30:10.881Z,0.50
2023-05-16T20:32:39.191Z,0.70
2023-05-16T20:35:10.157Z,0.60
2023-05-16T20:37:39.295Z,0.60
2023-05-16T20:40:08.739Z,0.37
2023-05-16T20:42:37.230Z,0.40
2023-05-16T20:45:08.037Z,0.40
2023-05-16T20:47:36.264Z,0.65
2023-05-16T20:50:05.198Z,0.70
2023-05-16T20:52:33.697Z,0.55
2023-05-16T20:55:02.384Z,0.50
2023-05-16T20:57:31.755Z,0.60
2023-05-16T21:00:00.024Z,0.25
2023-05-16T21:02:29.754Z,0.60
2023-05-16T21:05:14.386Z,0.40
2023-05-16T21:07:51.627Z,0.50
2023-05-16T21:10:19.958Z,0.30
2023-05-16T21:12:48.337Z,0.68
2023-05-16T21:15:16.597Z,0.57
2023-05-16T21:17:46.119Z,0.50
2023-05-16T21:20:15.624Z,0.30
2023-05-16T21:22:43.813Z,1.17
2023-05-16T21:25:12.103Z,0.60
2023-05-16T21:27:40.937Z,0.40
2023-05-16T21:30:10.256Z,0.45
2023-05-16T21:32:38.395Z,0.60
2023-05-16T21:35:10.636Z,0.47
2023-05-16T21:37:38.721Z,0.40
2023-05-16T21:40:09.583Z,0.47
2023-05-16T21:42:38.173Z,0.40
2023-05-16T21:45:12.619Z,0.52
2023-05-16T21:47:41.091Z,0.50
2023-05-16T21:50:11.472Z,0.45
2023-05-16T21:52:40.709Z,0.70
2023-05-16T21:55:09.813Z,0.68
2023-05-16T21:57:38.275Z,0.25
2023-05-16T22:00:09.789Z,0.30
2023-05-16T22:02:39.792Z,0.35
2023-05-16T22:05:09.509Z,0.30
2023-05-16T22:07:39.254Z,0.60
2023-05-16T22:10:10.819Z,0.62
2023-05-16T22:12:39.640Z,0.73
2023-05-16T22:15:10.068Z,0.30
2023-05-16T22:17:38.308Z,0.70
2023-05-16T22:20:08.162Z,0.62
2023-05-16T22:22:36.948Z,0.70
2023-05-16T22:25:07.479Z,0.70
2023-05-16T22:27:35.552Z,0.70
2023-05-16T22:30:04.479Z,0.88
2023-05-16T22:32:32.816Z,0.57
2023-05-16T22:35:02.138Z,0.70
2023-05-16T22:37:31.402Z,0.40
2023-05-16T22:39:59.476Z,0.50
2023-05-16T22:42:28.808Z,0.60
2023-05-16T22:44:57.153Z,0.75
2023-05-16T22:47:25.402Z,0.93
2023-05-16T22:49:53.383Z,0.50
2023-05-16T22:52:22.172Z,0.47
2023-05-16T22:54:50.225Z,0.45
2023-05-16T22:57:18.310Z,0.82
2023-05-16T22:59:48.096Z,0.85
2023-05-16T23:02:16.287Z,0.62
2023-05-16T23:04:44.503Z,0.73
2023-05-16T23:07:13.153Z,0.68
2023-05-16T23:09:41.257Z,0.90
2023-05-16T23:12:09.963Z,0.65
2023-05-16T23:14:38.750Z,0.50
2023-05-16T23:17:08.326Z,0.50
2023-05-16T23:19:36.456Z,0.40
2023-05-16T23:22:06.168Z,0.60
2023-05-16T23:24:34.181Z,0.93
2023-05-16T23:27:02.292Z,0.52
2023-05-16T23:29:30.632Z,0.52
2023-05-16T23:31:58.915Z,0.57
2023-05-16T23:34:28.418Z,0.55
2023-05-16T23:36:56.941Z,0.50
2023-05-16T23:39:25.311Z,0.65
2023-05-16T23:41:53.441Z,0.60
2023-05-16T23:44:21.910Z,0.70
2023-05-16T23:46:49.958Z,0.77
2023-05-16T23:49:18.084Z,0.55
2023-05-16T23:51:57.517Z,0.70
2023-05-16T23:54:26.547Z,0.93
2023-05-16T23:56:54.883Z,0.75
2023-05-16T23:59:23.022Z,0.82
